Aérodrome :
LOGIN :

S'inscrire | Disclaimer

   EN    FR    IT 

 










Légende :    VFR   VFR Marginal   IFR   IFR Intensif   IFR Très Intensif
Visi : 
Plafond : 
>= 8 km
>= 3000ft
5 à 8 km
1000 à 3000 ft
1500m à 5 km
500 à 1000 ft
800 à 1500m
200 à 500 ft
< 800m
< 200 ft
Symboles :   Orages  Brouillard  Fortes neiges  Fortes précipitations  Vent > 20 kt
SIGMETs :   Divers  Orages  Givrage  Turbulence  Onde Orograph.  Cendres Volcan.






- Altitude de l'aérodrome : 194 ft


EBCV - Chièvres

DERNIER METAR :
  • 030655Z AUTO VRB02KT 9999 FEW005/// BKN120/// 14/13 Q1013 BLU

METARs EXPIRÉS :
  • 030643Z AUTO VRB02KT 9999 FEW067/// BKN120/// 13/12 Q1013 BLU
  • 030625Z AUTO 01003KT 7000 FEW067/// BKN100/// 13/12 Q1013 WHT
  • 030555Z AUTO 03003KT 7000 OVC100/// 13/12 Q1013 WHT
  • 030525Z AUTO VRB02KT 6000 FEW035/// BKN110/// 13/12 Q1013 WHT
  • 030455Z AUTO 10003KT 7000 BKN036/// BKN110/// 13/12 Q1013 WHT
  • 030425Z AUTO VRB02KT 6000 -RA BKN035/// BKN100/// 13/12 Q1013 WHT

TAF TAF EBCV
Valide du 03 à 07h jusqu'au 03 à 16h UTC


030541Z 0307/0316 VRB03KT 8000 SCT035 BKN120
TEMPO 0307/0312 03004KT 7000 -SHRA -RA BKN020 BKN100
PROB30
TEMPO 0307/0310 4000 TSRA SCT015CB
BECMG 0311/0313 33005KT 9999 SCT030 BY EBWM



MET'MAP, la Météo Aéronautique d'un coup d'oeil ! - Copyright ORBIFLY Décembre 2007 - Disclaimer

ORBIFLY MET'MAP TEAM :

Programmation & Développement : Alexandra Zaïnal
Sur une idée originale de : Baudouin d'Aumeries
Assistance à la programmation : Marc-Olivier Méhu
Soutien technique & logistique : Manuel Goepfert

Contact : metmap@orbifly.com




SOURCES & CREDITS :

   NOAA